sensor_id;sensor_type;location;lat;lon;timestamp;temperature;humidity
6114;DHT22;3087;48.392;10.836;2022-11-20T00:01:39;7.40;99.90
6114;DHT22;3087;48.392;10.836;2022-11-20T00:04:05;7.40;99.90
6114;DHT22;3087;48.392;10.836;2022-11-20T00:06:31;7.30;99.90
6114;DHT22;3087;48.392;10.836;2022-11-20T00:08:59;7.30;99.90
6114;DHT22;3087;48.392;10.836;2022-11-20T00:11:26;7.30;99.90
6114;DHT22;3087;48.392;10.836;2022-11-20T00:13:56;7.30;99.90
6114;DHT22;3087;48.392;10.836;2022-11-20T00:16:24;7.30;99.90
6114;DHT22;3087;48.392;10.836;2022-11-20T00:18:50;7.60;99.90
6114;DHT22;3087;48.392;10.836;2022-11-20T00:21:24;7.40;99.90
6114;DHT22;3087;48.392;10.836;2022-11-20T00:23:52;7.20;99.90
6114;DHT22;3087;48.392;10.836;2022-11-20T00:26:19;7.60;99.90
6114;DHT22;3087;48.392;10.836;2022-11-20T00:28:50;7.40;99.90
6114;DHT22;3087;48.392;10.836;2022-11-20T00:31:17;7.90;99.90
6114;DHT22;3087;48.392;10.836;2022-11-20T00:33:43;7.50;99.90
6114;DHT22;3087;48.392;10.836;2022-11-20T00:36:11;7.30;99.90
6114;DHT22;3087;48.392;10.836;2022-11-20T00:38:37;7.20;99.90
6114;DHT22;3087;48.392;10.836;2022-11-20T00:41:09;7.30;99.90
6114;DHT22;3087;48.392;10.836;2022-11-20T00:43:35;7.20;99.90
6114;DHT22;3087;48.392;10.836;2022-11-20T00:46:05;7.50;99.90
6114;DHT22;3087;48.392;10.836;2022-11-20T00:48:30;7.00;99.90
6114;DHT22;3087;48.392;10.836;2022-11-20T00:50:56;7.10;99.90
6114;DHT22;3087;48.392;10.836;2022-11-20T00:53:22;7.00;99.90
6114;DHT22;3087;48.392;10.836;2022-11-20T00:56:03;7.00;99.90
6114;DHT22;3087;48.392;10.836;2022-11-20T00:58:31;7.10;99.90
6114;DHT22;3087;48.392;10.836;2022-11-20T01:01:09;7.10;99.90
6114;DHT22;3087;48.392;10.836;2022-11-20T01:03:38;7.10;99.90
6114;DHT22;3087;48.392;10.836;2022-11-20T01:06:19;7.10;99.90
6114;DHT22;3087;48.392;10.836;2022-11-20T01:08:45;7.10;99.90
6114;DHT22;3087;48.392;10.836;2022-11-20T01:11:14;7.10;99.90
6114;DHT22;3087;48.392;10.836;2022-11-20T01:13:41;7.00;99.90
6114;DHT22;3087;48.392;10.836;2022-11-20T01:16:12;7.10;99.90
6114;DHT22;3087;48.392;10.836;2022-11-20T01:18:39;7.10;99.90
6114;DHT22;3087;48.392;10.836;2022-11-20T01:21:11;7.10;99.90
6114;DHT22;3087;48.392;10.836;2022-11-20T01:23:39;7.40;99.90
6114;DHT22;3087;48.392;10.836;2022-11-20T01:26:08;7.20;99.90
6114;DHT22;3087;48.392;10.836;2022-11-20T01:28:34;7.40;99.90
6114;DHT22;3087;48.392;10.836;2022-11-20T01:31:00;7.30;99.90
6114;DHT22;3087;48.392;10.836;2022-11-20T01:33:27;7.60;99.90
6114;DHT22;3087;48.392;10.836;2022-11-20T01:35:53;7.30;99.90
6114;DHT22;3087;48.392;10.836;2022-11-20T01:38:19;7.90;99.90
6114;DHT22;3087;48.392;10.836;2022-11-20T01:40:55;7.40;99.90
6114;DHT22;3087;48.392;10.836;2022-11-20T01:43:21;7.20;99.90
6114;DHT22;3087;48.392;10.836;2022-11-20T01:48:13;7.10;99.90
6114;DHT22;3087;48.392;10.836;2022-11-20T01:50:40;7.70;99.90
6114;DHT22;3087;48.392;10.836;2022-11-20T01:53:10;7.10;99.90
6114;DHT22;3087;48.392;10.836;2022-11-20T01:55:41;6.90;99.90
6114;DHT22;3087;48.392;10.836;2022-11-20T01:58:09;6.80;99.90
6114;DHT22;3087;48.392;10.836;2022-11-20T02:00:35;7.20;99.90
6114;DHT22;3087;48.392;10.836;2022-11-20T02:03:05;6.70;99.90
6114;DHT22;3087;48.392;10.836;2022-11-20T02:05:37;6.70;99.90
6114;DHT22;3087;48.392;10.836;2022-11-20T02:08:05;7.00;99.90
6114;DHT22;3087;48.392;10.836;2022-11-20T02:10:32;6.70;99.90
6114;DHT22;3087;48.392;10.836;2022-11-20T02:12:58;6.60;99.90
6114;DHT22;3087;48.392;10.836;2022-11-20T02:15:43;6.60;99.90
6114;DHT22;3087;48.392;10.836;2022-11-20T02:18:10;6.70;99.90
6114;DHT22;3087;48.392;10.836;2022-11-20T02:20:36;6.70;99.90
6114;DHT22;3087;48.392;10.836;2022-11-20T02:23:08;6.60;99.90
6114;DHT22;3087;48.392;10.836;2022-11-20T02:25:37;6.60;99.90
6114;DHT22;3087;48.392;10.836;2022-11-20T02:28:03;6.50;99.90
6114;DHT22;3087;48.392;10.836;2022-11-20T02:30:30;6.50;99.90
6114;DHT22;3087;48.392;10.836;2022-11-20T02:32:55;6.90;99.90
6114;DHT22;3087;48.392;10.836;2022-11-20T02:37:50;6.60;99.90
6114;DHT22;3087;48.392;10.836;2022-11-20T02:40:16;6.60;99.90
6114;DHT22;3087;48.392;10.836;2022-11-20T02:42:42;6.60;99.90
6114;DHT22;3087;48.392;10.836;2022-11-20T02:45:08;6.90;99.90
6114;DHT22;3087;48.392;10.836;2022-11-20T02:47:34;6.60;99.90
6114;DHT22;3087;48.392;10.836;2022-11-20T02:49:59;6.60;99.90
6114;DHT22;3087;48.392;10.836;2022-11-20T02:52:25;6.60;99.90
6114;DHT22;3087;48.392;10.836;2022-11-20T02:54:51;6.50;99.90
6114;DHT22;3087;48.392;10.836;2022-11-20T02:57:16;7.30;99.90
6114;DHT22;3087;48.392;10.836;2022-11-20T02:59:42;6.60;99.90
6114;DHT22;3087;48.392;10.836;2022-11-20T03:02:08;6.60;99.90
6114;DHT22;3087;48.392;10.836;2022-11-20T03:04:34;6.80;99.90
6114;DHT22;3087;48.392;10.836;2022-11-20T03:07:00;6.80;99.90
6114;DHT22;3087;48.392;10.836;2022-11-20T03:09:25;6.70;99.90
6114;DHT22;3087;48.392;10.836;2022-11-20T03:11:51;6.70;99.90
6114;DHT22;3087;48.392;10.836;2022-11-20T03:14:16;6.60;99.90
6114;DHT22;3087;48.392;10.836;2022-11-20T03:16:42;6.60;99.90
6114;DHT22;3087;48.392;10.836;2022-11-20T03:19:08;7.50;99.90
6114;DHT22;3087;48.392;10.836;2022-11-20T03:21:34;6.60;99.90
6114;DHT22;3087;48.392;10.836;2022-11-20T03:24:00;6.60;99.90
6114;DHT22;3087;48.392;10.836;2022-11-20T03:26:26;7.40;99.90
6114;DHT22;3087;48.392;10.836;2022-11-20T03:29:00;6.60;99.90
6114;DHT22;3087;48.392;10.836;2022-11-20T03:31:29;6.60;99.90
6114;DHT22;3087;48.392;10.836;2022-11-20T03:33:56;6.90;99.90
6114;DHT22;3087;48.392;10.836;2022-11-20T03:36:22;7.50;99.90
6114;DHT22;3087;48.392;10.836;2022-11-20T03:38:48;6.80;99.90
6114;DHT22;3087;48.392;10.836;2022-11-20T03:41:16;7.10;99.90
6114;DHT22;3087;48.392;10.836;2022-11-20T03:43:53;6.90;99.90
6114;DHT22;3087;48.392;10.836;2022-11-20T03:46:19;6.90;99.90
6114;DHT22;3087;48.392;10.836;2022-11-20T03:48:45;6.90;99.90
6114;DHT22;3087;48.392;10.836;2022-11-20T03:51:17;7.10;99.90
6114;DHT22;3087;48.392;10.836;2022-11-20T03:53:44;6.70;99.90
6114;DHT22;3087;48.392;10.836;2022-11-20T03:56:11;6.90;99.90
6114;DHT22;3087;48.392;10.836;2022-11-20T03:58:38;6.60;99.90
6114;DHT22;3087;48.392;10.836;2022-11-20T04:01:09;7.50;99.90
6114;DHT22;3087;48.392;10.836;2022-11-20T04:03:37;7.50;99.90
6114;DHT22;3087;48.392;10.836;2022-11-20T04:06:10;6.50;99.90
6114;DHT22;3087;48.392;10.836;2022-11-20T04:08:37;6.50;99.90
6114;DHT22;3087;48.392;10.836;2022-11-20T04:11:17;6.50;99.90
6114;DHT22;3087;48.392;10.836;2022-11-20T04:13:47;6.60;99.90
6114;DHT22;3087;48.392;10.836;2022-11-20T04:16:13;6.60;99.90
6114;DHT22;3087;48.392;10.836;2022-11-20T04:18:39;6.60;99.90
6114;DHT22;3087;48.392;10.836;2022-11-20T04:21:05;7.50;99.90
6114;DHT22;3087;48.392;10.836;2022-11-20T04:23:31;7.10;99.90
6114;DHT22;3087;48.392;10.836;2022-11-20T04:26:07;7.20;99.90
6114;DHT22;3087;48.392;10.836;2022-11-20T04:28:33;6.80;99.90
6114;DHT22;3087;48.392;10.836;2022-11-20T04:31:08;6.80;99.90
6114;DHT22;3087;48.392;10.836;2022-11-20T04:33:34;7.30;99.90
6114;DHT22;3087;48.392;10.836;2022-11-20T04:36:14;7.20;99.90
6114;DHT22;3087;48.392;10.836;2022-11-20T04:38:40;6.70;99.90
6114;DHT22;3087;48.392;10.836;2022-11-20T04:41:07;7.00;99.90
6114;DHT22;3087;48.392;10.836;2022-11-20T04:43:33;7.40;99.90
6114;DHT22;3087;48.392;10.836;2022-11-20T04:46:00;6.60;99.90
6114;DHT22;3087;48.392;10.836;2022-11-20T04:48:27;6.60;99.90
6114;DHT22;3087;48.392;10.836;2022-11-20T04:50:53;6.90;99.90
6114;DHT22;3087;48.392;10.836;2022-11-20T04:53:20;6.60;99.90
6114;DHT22;3087;48.392;10.836;2022-11-20T04:55:46;6.60;99.90
6114;DHT22;3087;48.392;10.836;2022-11-20T04:58:12;6.50;99.90
6114;DHT22;3087;48.392;10.836;2022-11-20T05:00:38;6.70;99.90
6114;DHT22;3087;48.392;10.836;2022-11-20T05:03:04;7.00;99.90
6114;DHT22;3087;48.392;10.836;2022-11-20T05:05:30;8.50;99.90
6114;DHT22;3087;48.392;10.836;2022-11-20T05:07:56;6.80;99.90
6114;DHT22;3087;48.392;10.836;2022-11-20T05:10:23;6.50;99.90
6114;DHT22;3087;48.392;10.836;2022-11-20T05:12:49;6.40;99.90
6114;DHT22;3087;48.392;10.836;2022-11-20T05:15:14;6.40;99.90
6114;DHT22;3087;48.392;10.836;2022-11-20T05:17:40;6.40;99.90
6114;DHT22;3087;48.392;10.836;2022-11-20T05:20:06;6.30;99.90
6114;DHT22;3087;48.392;10.836;2022-11-20T05:22:32;6.30;99.90
6114;DHT22;3087;48.392;10.836;2022-11-20T05:24:57;6.20;99.90
6114;DHT22;3087;48.392;10.836;2022-11-20T05:27:23;6.20;99.90
6114;DHT22;3087;48.392;10.836;2022-11-20T05:29:49;6.30;99.90
6114;DHT22;3087;48.392;10.836;2022-11-20T05:32:14;6.40;99.90
6114;DHT22;3087;48.392;10.836;2022-11-20T05:34:40;6.40;99.90
6114;DHT22;3087;48.392;10.836;2022-11-20T05:37:05;6.90;99.90
6114;DHT22;3087;48.392;10.836;2022-11-20T05:39:31;6.80;99.90
6114;DHT22;3087;48.392;10.836;2022-11-20T05:41:56;6.90;99.90
6114;DHT22;3087;48.392;10.836;2022-11-20T05:44:40;6.80;99.90
6114;DHT22;3087;48.392;10.836;2022-11-20T05:47:06;6.80;99.90
6114;DHT22;3087;48.392;10.836;2022-11-20T05:49:32;6.70;99.90
6114;DHT22;3087;48.392;10.836;2022-11-20T05:51:57;6.60;99.90
6114;DHT22;3087;48.392;10.836;2022-11-20T05:54:23;6.60;99.90
6114;DHT22;3087;48.392;10.836;2022-11-20T05:56:48;7.00;99.90
6114;DHT22;3087;48.392;10.836;2022-11-20T05:59:14;6.80;99.90
6114;DHT22;3087;48.392;10.836;2022-11-20T06:01:40;7.00;99.90
6114;DHT22;3087;48.392;10.836;2022-11-20T06:04:06;7.10;99.90
6114;DHT22;3087;48.392;10.836;2022-11-20T06:06:31;7.50;99.90
6114;DHT22;3087;48.392;10.836;2022-11-20T06:09:06;7.70;99.90
6114;DHT22;3087;48.392;10.836;2022-11-20T06:11:32;7.30;99.90
6114;DHT22;3087;48.392;10.836;2022-11-20T06:13:57;7.30;99.90
6114;DHT22;3087;48.392;10.836;2022-11-20T06:16:24;7.30;99.90
6114;DHT22;3087;48.392;10.836;2022-11-20T06:18:49;7.30;99.90
6114;DHT22;3087;48.392;10.836;2022-11-20T06:21:17;7.30;99.90
6114;DHT22;3087;48.392;10.836;2022-11-20T06:23:44;7.70;99.90
6114;DHT22;3087;48.392;10.836;2022-11-20T06:26:15;7.50;99.90
6114;DHT22;3087;48.392;10.836;2022-11-20T06:28:41;7.50;99.90
6114;DHT22;3087;48.392;10.836;2022-11-20T06:31:07;7.40;99.90
6114;DHT22;3087;48.392;10.836;2022-11-20T06:33:33;7.40;99.90
6114;DHT22;3087;48.392;10.836;2022-11-20T06:36:00;7.30;99.90
6114;DHT22;3087;48.392;10.836;2022-11-20T06:38:27;7.40;99.90
6114;DHT22;3087;48.392;10.836;2022-11-20T06:40:53;7.80;99.90
6114;DHT22;3087;48.392;10.836;2022-11-20T06:43:19;7.20;99.90
6114;DHT22;3087;48.392;10.836;2022-11-20T06:45:45;7.20;99.90
6114;DHT22;3087;48.392;10.836;2022-11-20T06:48:10;7.60;99.90
6114;DHT22;3087;48.392;10.836;2022-11-20T06:50:37;7.20;99.90
6114;DHT22;3087;48.392;10.836;2022-11-20T06:53:03;7.20;99.90
6114;DHT22;3087;48.392;10.836;2022-11-20T06:55:30;7.10;99.90
6114;DHT22;3087;48.392;10.836;2022-11-20T06:57:56;7.40;99.90
6114;DHT22;3087;48.392;10.836;2022-11-20T07:00:22;7.20;99.90
6114;DHT22;3087;48.392;10.836;2022-11-20T07:02:47;7.20;99.90
6114;DHT22;3087;48.392;10.836;2022-11-20T07:05:13;7.00;99.90
6114;DHT22;3087;48.392;10.836;2022-11-20T07:07:39;6.90;99.90
6114;DHT22;3087;48.392;10.836;2022-11-20T07:10:05;6.90;99.90
6114;DHT22;3087;48.392;10.836;2022-11-20T07:12:30;6.80;99.90
6114;DHT22;3087;48.392;10.836;2022-11-20T07:14:56;6.90;99.90
6114;DHT22;3087;48.392;10.836;2022-11-20T07:17:22;6.90;99.90
6114;DHT22;3087;48.392;10.836;2022-11-20T07:19:47;6.90;99.90
6114;DHT22;3087;48.392;10.836;2022-11-20T07:22:13;6.90;99.90
6114;DHT22;3087;48.392;10.836;2022-11-20T07:24:38;6.90;99.90
6114;DHT22;3087;48.392;10.836;2022-11-20T07:27:07;6.80;99.90
6114;DHT22;3087;48.392;10.836;2022-11-20T07:29:32;6.90;99.90
6114;DHT22;3087;48.392;10.836;2022-11-20T07:31:58;6.90;99.90
6114;DHT22;3087;48.392;10.836;2022-11-20T07:36:50;7.00;99.90
6114;DHT22;3087;48.392;10.836;2022-11-20T07:39:16;7.00;99.90
6114;DHT22;3087;48.392;10.836;2022-11-20T07:41:41;7.00;99.90
6114;DHT22;3087;48.392;10.836;2022-11-20T07:44:07;7.00;99.90
6114;DHT22;3087;48.392;10.836;2022-11-20T07:46:32;7.00;99.90
6114;DHT22;3087;48.392;10.836;2022-11-20T07:48:58;7.10;99.90
6114;DHT22;3087;48.392;10.836;2022-11-20T07:53:52;7.10;99.90
6114;DHT22;3087;48.392;10.836;2022-11-20T07:56:17;7.10;99.90
6114;DHT22;3087;48.392;10.836;2022-11-20T07:58:43;7.20;99.90
6114;DHT22;3087;48.392;10.836;2022-11-20T08:01:08;7.20;99.90
6114;DHT22;3087;48.392;10.836;2022-11-20T08:03:34;7.30;99.90
6114;DHT22;3087;48.392;10.836;2022-11-20T08:06:03;7.40;99.90
6114;DHT22;3087;48.392;10.836;2022-11-20T08:08:29;7.30;99.90
6114;DHT22;3087;48.392;10.836;2022-11-20T08:10:57;7.40;99.90
6114;DHT22;3087;48.392;10.836;2022-11-20T08:13:43;7.50;99.90
6114;DHT22;3087;48.392;10.836;2022-11-20T08:16:28;7.50;99.90
6114;DHT22;3087;48.392;10.836;2022-11-20T08:18:54;7.50;99.90
6114;DHT22;3087;48.392;10.836;2022-11-20T08:21:19;7.60;99.90
6114;DHT22;3087;48.392;10.836;2022-11-20T08:23:45;7.70;99.90
6114;DHT22;3087;48.392;10.836;2022-11-20T08:26:11;7.70;99.90
6114;DHT22;3087;48.392;10.836;2022-11-20T08:28:36;7.80;99.90
6114;DHT22;3087;48.392;10.836;2022-11-20T08:31:03;7.80;99.90
6114;DHT22;3087;48.392;10.836;2022-11-20T08:33:29;7.90;99.90
6114;DHT22;3087;48.392;10.836;2022-11-20T08:35:59;7.80;99.90
6114;DHT22;3087;48.392;10.836;2022-11-20T08:38:26;7.80;99.90
6114;DHT22;3087;48.392;10.836;2022-11-20T08:40:51;7.70;99.90
6114;DHT22;3087;48.392;10.836;2022-11-20T08:43:35;7.70;99.90
6114;DHT22;3087;48.392;10.836;2022-11-20T08:46:01;7.70;99.90
6114;DHT22;3087;48.392;10.836;2022-11-20T08:50:53;7.90;99.90
6114;DHT22;3087;48.392;10.836;2022-11-20T08:53:18;7.90;99.90
6114;DHT22;3087;48.392;10.836;2022-11-20T08:55:44;7.90;99.90
6114;DHT22;3087;48.392;10.836;2022-11-20T08:58:09;7.90;99.90
6114;DHT22;3087;48.392;10.836;2022-11-20T09:00:35;8.00;99.90
6114;DHT22;3087;48.392;10.836;2022-11-20T09:03:01;8.00;99.90
6114;DHT22;3087;48.392;10.836;2022-11-20T09:05:27;8.00;99.90
6114;DHT22;3087;48.392;10.836;2022-11-20T09:07:56;8.10;99.90
6114;DHT22;3087;48.392;10.836;2022-11-20T09:10:22;8.10;99.90
6114;DHT22;3087;48.392;10.836;2022-11-20T09:12:53;8.00;99.90
6114;DHT22;3087;48.392;10.836;2022-11-20T09:15:20;8.00;99.90
6114;DHT22;3087;48.392;10.836;2022-11-20T09:17:58;8.20;99.90
6114;DHT22;3087;48.392;10.836;2022-11-20T09:20:25;8.20;99.90
6114;DHT22;3087;48.392;10.836;2022-11-20T09:22:51;8.20;99.90
6114;DHT22;3087;48.392;10.836;2022-11-20T09:25:17;8.20;99.90
6114;DHT22;3087;48.392;10.836;2022-11-20T09:27:43;8.10;99.90
6114;DHT22;3087;48.392;10.836;2022-11-20T09:30:17;8.10;99.90
6114;DHT22;3087;48.392;10.836;2022-11-20T09:32:43;8.30;99.90
6114;DHT22;3087;48.392;10.836;2022-11-20T09:35:09;8.30;99.90
6114;DHT22;3087;48.392;10.836;2022-11-20T09:37:35;8.40;99.90
6114;DHT22;3087;48.392;10.836;2022-11-20T09:40:01;8.50;99.90
6114;DHT22;3087;48.392;10.836;2022-11-20T09:42:45;8.40;99.90
6114;DHT22;3087;48.392;10.836;2022-11-20T09:45:24;8.40;99.90
6114;DHT22;3087;48.392;10.836;2022-11-20T09:56:09;8.30;99.90
6114;DHT22;3087;48.392;10.836;2022-11-20T09:58:49;8.40;99.90
6114;DHT22;3087;48.392;10.836;2022-11-20T10:01:18;8.30;99.90
6114;DHT22;3087;48.392;10.836;2022-11-20T10:04:01;8.30;99.90
6114;DHT22;3087;48.392;10.836;2022-11-20T10:06:33;8.30;99.90
6114;DHT22;3087;48.392;10.836;2022-11-20T10:14:23;8.30;99.90
6114;DHT22;3087;48.392;10.836;2022-11-20T10:19:45;8.40;99.90
6114;DHT22;3087;48.392;10.836;2022-11-20T10:25:19;8.40;99.90
6114;DHT22;3087;48.392;10.836;2022-11-20T10:30:31;8.50;99.90
6114;DHT22;3087;48.392;10.836;2022-11-20T10:33:05;8.50;99.90
6114;DHT22;3087;48.392;10.836;2022-11-20T10:35:42;8.40;99.90
6114;DHT22;3087;48.392;10.836;2022-11-20T10:38:17;8.30;99.90
6114;DHT22;3087;48.392;10.836;2022-11-20T10:40:56;8.20;99.90
6114;DHT22;3087;48.392;10.836;2022-11-20T10:43:43;8.30;99.90
6114;DHT22;3087;48.392;10.836;2022-11-20T10:46:18;8.30;99.90
6114;DHT22;3087;48.392;10.836;2022-11-20T10:48:46;8.30;99.90
6114;DHT22;3087;48.392;10.836;2022-11-20T11:01:42;8.10;99.90
6114;DHT22;3087;48.392;10.836;2022-11-20T11:04:38;8.10;99.90
6114;DHT22;3087;48.392;10.836;2022-11-20T11:07:13;8.30;99.90
6114;DHT22;3087;48.392;10.836;2022-11-20T11:09:43;8.30;99.90
6114;DHT22;3087;48.392;10.836;2022-11-20T11:12:09;8.40;99.90
6114;DHT22;3087;48.392;10.836;2022-11-20T11:15:01;7.20;99.90
6114;DHT22;3087;48.392;10.836;2022-11-20T11:17:30;8.40;99.90
6114;DHT22;3087;48.392;10.836;2022-11-20T11:20:03;8.40;99.90
6114;DHT22;3087;48.392;10.836;2022-11-20T11:22:32;8.50;99.90
6114;DHT22;3087;48.392;10.836;2022-11-20T11:24:58;8.40;99.90
6114;DHT22;3087;48.392;10.836;2022-11-20T11:27:24;8.40;99.90
6114;DHT22;3087;48.392;10.836;2022-11-20T11:30:02;8.40;99.90
6114;DHT22;3087;48.392;10.836;2022-11-20T11:32:28;8.40;99.90
6114;DHT22;3087;48.392;10.836;2022-11-20T11:35:05;8.40;99.90
6114;DHT22;3087;48.392;10.836;2022-11-20T11:37:36;8.50;99.90
6114;DHT22;3087;48.392;10.836;2022-11-20T11:40:08;8.50;99.90
6114;DHT22;3087;48.392;10.836;2022-11-20T11:42:35;8.50;99.90
6114;DHT22;3087;48.392;10.836;2022-11-20T11:45:01;8.30;99.90
6114;DHT22;3087;48.392;10.836;2022-11-20T11:55:18;8.40;99.90
6114;DHT22;3087;48.392;10.836;2022-11-20T11:58:23;8.40;99.90
6114;DHT22;3087;48.392;10.836;2022-11-20T12:03:38;8.30;99.90
6114;DHT22;3087;48.392;10.836;2022-11-20T12:06:12;8.30;99.90
6114;DHT22;3087;48.392;10.836;2022-11-20T12:08:50;8.40;99.90
6114;DHT22;3087;48.392;10.836;2022-11-20T12:11:29;8.50;99.90
6114;DHT22;3087;48.392;10.836;2022-11-20T12:14:23;8.50;99.90
6114;DHT22;3087;48.392;10.836;2022-11-20T12:16:52;8.60;99.90
6114;DHT22;3087;48.392;10.836;2022-11-20T12:19:19;8.60;99.90
6114;DHT22;3087;48.392;10.836;2022-11-20T12:32:55;8.50;99.90
6114;DHT22;3087;48.392;10.836;2022-11-20T12:35:51;8.30;99.90
6114;DHT22;3087;48.392;10.836;2022-11-20T12:47:23;8.50;99.90
6114;DHT22;3087;48.392;10.836;2022-11-20T12:50:01;8.40;99.90
6114;DHT22;3087;48.392;10.836;2022-11-20T12:55:23;8.50;99.90
6114;DHT22;3087;48.392;10.836;2022-11-20T12:58:03;8.50;99.90
6114;DHT22;3087;48.392;10.836;2022-11-20T13:00:32;8.40;99.90
6114;DHT22;3087;48.392;10.836;2022-11-20T13:05:40;9.00;99.90
6114;DHT22;3087;48.392;10.836;2022-11-20T13:08:25;8.40;99.90
6114;DHT22;3087;48.392;10.836;2022-11-20T13:18:51;8.40;99.90
6114;DHT22;3087;48.392;10.836;2022-11-20T13:21:22;8.40;99.90
6114;DHT22;3087;48.392;10.836;2022-11-20T13:23:48;8.30;99.90
6114;DHT22;3087;48.392;10.836;2022-11-20T13:26:22;8.30;99.90
6114;DHT22;3087;48.392;10.836;2022-11-20T13:29:01;8.10;99.90
6114;DHT22;3087;48.392;10.836;2022-11-20T13:31:33;8.10;99.90
6114;DHT22;3087;48.392;10.836;2022-11-20T13:34:03;8.10;99.90
6114;DHT22;3087;48.392;10.836;2022-11-20T13:36:30;8.10;99.90
6114;DHT22;3087;48.392;10.836;2022-11-20T13:38:57;8.20;99.90
6114;DHT22;3087;48.392;10.836;2022-11-20T13:41:32;8.20;99.90
6114;DHT22;3087;48.392;10.836;2022-11-20T13:49:10;8.30;99.90
6114;DHT22;3087;48.392;10.836;2022-11-20T13:51:45;8.40;99.90
6114;DHT22;3087;48.392;10.836;2022-11-20T13:57:41;8.30;99.90
6114;DHT22;3087;48.392;10.836;2022-11-20T14:02:33;8.30;99.90
6114;DHT22;3087;48.392;10.836;2022-11-20T14:05:01;8.40;99.90
6114;DHT22;3087;48.392;10.836;2022-11-20T14:07:40;8.30;99.90
6114;DHT22;3087;48.392;10.836;2022-11-20T14:10:21;8.20;99.90
6114;DHT22;3087;48.392;10.836;2022-11-20T14:12:47;8.20;99.90
6114;DHT22;3087;48.392;10.836;2022-11-20T14:15:28;8.20;99.90
6114;DHT22;3087;48.392;10.836;2022-11-20T14:17:54;8.30;99.90
6114;DHT22;3087;48.392;10.836;2022-11-20T14:20:19;8.30;99.90
6114;DHT22;3087;48.392;10.836;2022-11-20T14:22:49;8.30;99.90
6114;DHT22;3087;48.392;10.836;2022-11-20T14:27:43;8.40;99.90
6114;DHT22;3087;48.392;10.836;2022-11-20T14:30:23;8.40;99.90
6114;DHT22;3087;48.392;10.836;2022-11-20T14:32:50;8.40;99.90
6114;DHT22;3087;48.392;10.836;2022-11-20T14:35:30;8.30;99.90
6114;DHT22;3087;48.392;10.836;2022-11-20T14:37:57;8.30;99.90
6114;DHT22;3087;48.392;10.836;2022-11-20T14:42:48;8.40;99.90
6114;DHT22;3087;48.392;10.836;2022-11-20T14:45:14;8.40;99.90
6114;DHT22;3087;48.392;10.836;2022-11-20T14:47:41;8.50;99.90
6114;DHT22;3087;48.392;10.836;2022-11-20T14:50:17;8.50;99.90
6114;DHT22;3087;48.392;10.836;2022-11-20T14:52:58;8.40;99.90
6114;DHT22;3087;48.392;10.836;2022-11-20T14:57:57;8.60;99.90
6114;DHT22;3087;48.392;10.836;2022-11-20T15:00:25;7.40;99.90
6114;DHT22;3087;48.392;10.836;2022-11-20T15:02:53;8.60;99.90
6114;DHT22;3087;48.392;10.836;2022-11-20T15:05:24;8.50;99.90
6114;DHT22;3087;48.392;10.836;2022-11-20T15:08:04;8.40;99.90
6114;DHT22;3087;48.392;10.836;2022-11-20T15:10:30;8.40;99.90
6114;DHT22;3087;48.392;10.836;2022-11-20T15:13:00;8.20;99.90
6114;DHT22;3087;48.392;10.836;2022-11-20T15:15:55;8.40;99.90
6114;DHT22;3087;48.392;10.836;2022-11-20T15:18:36;8.10;99.90
6114;DHT22;3087;48.392;10.836;2022-11-20T15:21:05;8.10;99.90
6114;DHT22;3087;48.392;10.836;2022-11-20T15:23:31;8.00;99.90
6114;DHT22;3087;48.392;10.836;2022-11-20T15:25:57;8.00;99.90
6114;DHT22;3087;48.392;10.836;2022-11-20T15:28:29;7.90;99.90
6114;DHT22;3087;48.392;10.836;2022-11-20T15:30:55;7.90;99.90
6114;DHT22;3087;48.392;10.836;2022-11-20T15:33:21;7.80;99.90
6114;DHT22;3087;48.392;10.836;2022-11-20T15:35:47;7.80;99.90
6114;DHT22;3087;48.392;10.836;2022-11-20T15:38:13;7.80;99.90
6114;DHT22;3087;48.392;10.836;2022-11-20T15:40:39;7.80;99.90
6114;DHT22;3087;48.392;10.836;2022-11-20T15:43:04;7.80;99.90
6114;DHT22;3087;48.392;10.836;2022-11-20T15:48:15;7.70;99.90
6114;DHT22;3087;48.392;10.836;2022-11-20T15:51:33;7.60;99.90
6114;DHT22;3087;48.392;10.836;2022-11-20T15:53:32;7.60;99.90
6114;DHT22;3087;48.392;10.836;2022-11-20T15:55:58;7.70;99.90
6114;DHT22;3087;48.392;10.836;2022-11-20T15:58:23;7.70;99.90
6114;DHT22;3087;48.392;10.836;2022-11-20T16:00:50;7.70;99.90
6114;DHT22;3087;48.392;10.836;2022-11-20T16:03:17;7.70;99.90
6114;DHT22;3087;48.392;10.836;2022-11-20T16:05:43;7.70;99.90
6114;DHT22;3087;48.392;10.836;2022-11-20T16:08:08;7.60;99.90
6114;DHT22;3087;48.392;10.836;2022-11-20T16:10:34;7.60;99.90
6114;DHT22;3087;48.392;10.836;2022-11-20T16:13:00;7.60;99.90
6114;DHT22;3087;48.392;10.836;2022-11-20T16:15:51;7.60;99.90
6114;DHT22;3087;48.392;10.836;2022-11-20T16:18:19;7.60;99.90
6114;DHT22;3087;48.392;10.836;2022-11-20T16:20:50;7.60;99.90
6114;DHT22;3087;48.392;10.836;2022-11-20T16:23:16;7.60;99.90
6114;DHT22;3087;48.392;10.836;2022-11-20T16:25:42;7.60;99.90
6114;DHT22;3087;48.392;10.836;2022-11-20T16:28:08;7.50;99.90
6114;DHT22;3087;48.392;10.836;2022-11-20T16:30:34;7.60;99.90
6114;DHT22;3087;48.392;10.836;2022-11-20T16:33:01;7.60;99.90
6114;DHT22;3087;48.392;10.836;2022-11-20T16:35:28;7.60;99.90
6114;DHT22;3087;48.392;10.836;2022-11-20T16:37:57;7.50;99.90
6114;DHT22;3087;48.392;10.836;2022-11-20T16:40:24;7.50;99.90
6114;DHT22;3087;48.392;10.836;2022-11-20T16:42:50;7.50;99.90
6114;DHT22;3087;48.392;10.836;2022-11-20T16:45:15;7.40;99.90
6114;DHT22;3087;48.392;10.836;2022-11-20T16:47:41;7.40;99.90
6114;DHT22;3087;48.392;10.836;2022-11-20T16:50:07;7.50;99.90
6114;DHT22;3087;48.392;10.836;2022-11-20T16:52:33;7.40;99.90
6114;DHT22;3087;48.392;10.836;2022-11-20T16:54:59;7.40;99.90
6114;DHT22;3087;48.392;10.836;2022-11-20T16:57:27;7.30;99.90
6114;DHT22;3087;48.392;10.836;2022-11-20T16:59:54;7.20;99.90
6114;DHT22;3087;48.392;10.836;2022-11-20T17:02:19;7.20;99.90
6114;DHT22;3087;48.392;10.836;2022-11-20T17:04:45;7.40;99.90
6114;DHT22;3087;48.392;10.836;2022-11-20T17:07:10;8.20;99.90
6114;DHT22;3087;48.392;10.836;2022-11-20T17:09:37;7.50;99.90
6114;DHT22;3087;48.392;10.836;2022-11-20T17:12:03;7.90;99.90
6114;DHT22;3087;48.392;10.836;2022-11-20T17:14:28;7.60;99.90
6114;DHT22;3087;48.392;10.836;2022-11-20T17:16:54;8.10;99.90
6114;DHT22;3087;48.392;10.836;2022-11-20T17:19:19;8.30;99.90
6114;DHT22;3087;48.392;10.836;2022-11-20T17:21:45;7.80;99.90
6114;DHT22;3087;48.392;10.836;2022-11-20T17:24:12;8.10;99.90
6114;DHT22;3087;48.392;10.836;2022-11-20T17:26:39;7.90;99.90
6114;DHT22;3087;48.392;10.836;2022-11-20T17:29:11;8.00;99.90
6114;DHT22;3087;48.392;10.836;2022-11-20T17:31:37;8.00;99.90
6114;DHT22;3087;48.392;10.836;2022-11-20T17:34:04;8.10;99.90
6114;DHT22;3087;48.392;10.836;2022-11-20T17:36:31;8.10;99.90
6114;DHT22;3087;48.392;10.836;2022-11-20T17:38:57;8.20;99.90
6114;DHT22;3087;48.392;10.836;2022-11-20T17:41:25;8.20;99.90
6114;DHT22;3087;48.392;10.836;2022-11-20T17:43:56;8.20;99.90
6114;DHT22;3087;48.392;10.836;2022-11-20T17:46:24;8.20;99.90
6114;DHT22;3087;48.392;10.836;2022-11-20T17:48:50;8.10;99.90
6114;DHT22;3087;48.392;10.836;2022-11-20T17:51:27;8.10;99.90
6114;DHT22;3087;48.392;10.836;2022-11-20T17:53:56;7.90;99.90
6114;DHT22;3087;48.392;10.836;2022-11-20T17:56:22;8.70;99.90
6114;DHT22;3087;48.392;10.836;2022-11-20T17:59:11;7.60;99.90
6114;DHT22;3087;48.392;10.836;2022-11-20T18:01:37;7.50;99.90
6114;DHT22;3087;48.392;10.836;2022-11-20T18:04:04;7.40;99.90